• Join FlightAware (Why Join?)
  • Login
  • US Flag 
09:45PM EDT


 

Airport Tracker/Info


-or-


 

Live Flight TrackerFlight Track Log ✈ CSJ405 ✈ 29-Apr-2013 ✈ KROC - CYHM

Flight Track Log - Related Links

Times and Time Zones

All times are in EDT time to prevent confusion due to time zone crossing. See the CSJ405 flight status page for this flight to view local times or setup timezone preferences in your user account.

Time Position Orientation Groundspeed Altitude Reporting Facility
EDT Latitude Longitude Course Direction KTS MPH feet Rate Location/Type
09:52PM 43.1117 -77.6825 284° West 68 78 1,100  Level Cleveland Center
09:53PM 43.1214 -77.7358 284° West 112 129 2,600 1,140 Climbing Cleveland Center
09:54PM 43.1244 -77.7786 276° West 100 115 3,900 420 Climbing Cleveland Center
09:56PM 43.1333 -77.8833 277° West 164 189 4,000  Climbing Buffalo TRACON
09:59PM 43.1167 -77.9833 257° West 150 173 4,000  Level Toronto Center
10:00PM 43.1167 -78.0500 270° West 160 184 4,000  Level Toronto Center
10:01PM 43.1333 -78.1000 295° West 150 173 4,000  Level Toronto Center
10:02PM 43.1167 -78.1667 251° West 160 184 4,000 -60 Level Toronto Center
10:03PM 43.1167 -78.2167 270° West 160 184 3,900  Descending Toronto Center
10:04PM 43.1167 -78.2833 270° West 160 184 4,000  Climbing Toronto Center
10:05PM 43.1167 -78.3500 270° West 160 184 4,000  Level Toronto Center
10:06PM 43.1167 -78.4000 270° West 160 184 4,000  Level Toronto Center
10:07PM 43.1333 -78.4667 289° West 160 184 4,000  Level Toronto Center
10:08PM 43.1500 -78.5333 289° West 160 184 4,000  Level Toronto Center
10:09PM 43.1500 -78.5833 270° West 160 184 4,000  Level Toronto Center
10:10PM 43.1500 -78.6500 270° West 160 184 4,000  Level Toronto Center
10:11PM 43.1500 -78.7167 270° West 160 184 4,000  Level Toronto Center
10:12PM 43.1500 -78.7667 270° West 160 184 4,000  Level Toronto Center
10:13PM 43.1500 -78.8333 270° West 160 184 4,000  Level Toronto Center
10:14PM 43.1500 -78.9000 270° West 160 184 4,000  Level Toronto Center
10:15PM 43.1500 -78.9500 270° West 160 184 4,000  Level Toronto Center
10:16PM 43.1500 -79.0167 270° West 160 184 4,000  Level Toronto Center
10:17PM 43.1500 -79.0667 270° West 160 184 4,000  Level Toronto Center
10:18PM 43.1500 -79.1333 270° West 160 184 4,000  Level Toronto Center
10:19PM 43.1500 -79.2000 270° West 160 184 4,000  Level Toronto Center
10:20PM 43.1500 -79.2500 270° West 160 184 4,000  Level Toronto Center
10:21PM 43.1500 -79.3167 270° West 160 184 4,000  Level Toronto Center
10:22PM 43.1500 -79.3833 270° West 160 184 4,000  Level Toronto Center
10:23PM 43.1667 -79.4333 295° West 160 184 4,000  Level Toronto Center
10:24PM 43.1667 -79.5000 270° West 160 184 4,000  Level Toronto Center
10:25PM 43.1667 -79.5500 270° West 160 184 4,000  Level Toronto Center
10:26PM 43.1833 -79.6167 289° West 170 196 4,000  Level Toronto Center
10:27PM 43.2000 -79.6833 289° West 160 184 4,000  Level Toronto Center
10:28PM 43.2167 -79.7167 304° West 170 196 4,000 -120 Level Toronto Center
10:29PM 43.2333 -79.8000 285° West 160 184 3,800 -540 Descending Toronto Center
10:30PM 43.2500 -79.8333 304° West 170 196 3,000 -360 Descending Toronto Center
10:31PM 43.2667 -79.9000 289° West 170 196 3,100  Climbing Toronto Center
10:32PM 43.2833 -79.9833 285° West 170 196 3,000 -60 Descending Toronto Center
10:33PM 43.3167 -80.0167 324° Northwest 170 196 3,000  Level Toronto Center
10:34PM 43.3000 -80.0667 245° Southwest 150 173 3,000  Level Toronto Center
10:35PM 43.2500 -80.0833 194° South 140 161 3,000  Level Toronto Center
10:36PM 43.2167 -80.0833 180° South 130 150 3,100  Climbing Toronto Center
10:37PM 43.2000 -80.0667 144° Southeast 120 138 3,000 -300 Descending Toronto Center
10:38PM 43.2000 -80.0167 90° East 120 138 2,500 -600 Descending Toronto Center
10:39PM 43.1833 -79.9833 124° Southeast 110 127 1,800 -660 Descending Toronto Center
10:40PM 43.1667 -79.9500 124° Southeast 110 127 1,200 -480 Descending Toronto Center
10:41PM 43.1667 -79.9000 90° East 100 115 900 -300 Descending Toronto Center